SBOSBO MLE / VRMM
Speedbird OnlineSpeedbird Online MLE / VRMM

Malé International Airport
03:53 29°C

Location Male, Maldives
Latitude: 4.191830158233643
Longitude: 73.52909851074219
Local Time 03:53 on 26 May 2024
UTC +5 hours (Indian/Maldives)
Currency £1 equals MVR 19.70
METAR VRMM 252200Z 23010KT 190V250 9999 FEW017TCU OVC110 29/27 Q1008 TEMPO 3000 TSRA
TAF TAF VRMM 251700Z 2518/2624 25018KT 9999 SCT016TCU BKN100 TEMPO 2518/2524 3000 TSRA SCT016CB
Weather As Of 26 May 2024 03:51
Description Overcast clouds
Wind 19 km/h from South-West (230°)
Cloud Cover 100%
Precipitation Rain: none, Snow: none
Sunrise 05:53
Sunset 18:13
NOTAM 9 active NOTAM
Rotations During the last 90 days there were
56 flights from LHR
56 flights to LHR
Lounges Leeli Lounge, Departure Terminal
Maamahi Executive Club, Main Terminal
Web Airport Website | Wikipedia
Codes IATA: MLE
ICAO: VRMM
Altitude 2 Meter / 6 Feet
Distance 8,499 KM / 5,281 Miles
from London.
Runways
RunwayLength (m)Surface
183200Asphalt
363200Asphalt
Radio
TypeDescriptionFrequency
APPAPP119.7
GNDGND121.6
TWRTWR118.1
Live ATC



Support Speedbird Online

© 2017-2024 Speedbird Online